Time;durP1;ratioP1;P1;durP2;ratioP2;P2;SDS_P1;SDS_P2;PMS_P1;PMS_P2;Temp;Humidity;BMP_temperature;BMP_pressure;BME280_temperature;BME280_humidity;BME280_pressure;Samples;Min_cycle;Max_cycle;Signal;HPM_P1;HPM_P2
2022/07/29 00:03:09;;;;;;;21.20;3.30;;;;;;;16.68;56.08;100950.23;3456829;83;98792;-84
2022/07/29 00:08:10;;;;;;;9.07;3.23;;;;;;;16.61;56.53;100942.72;3453159;83;99367;-82
2022/07/29 00:13:13;;;;;;;11.30;2.87;;;;;;;16.57;56.67;100943.95;3449704;85;98816;-82
2022/07/29 00:18:14;;;;;;;6.53;2.90;;;;;;;16.53;57.92;100950.91;3430653;82;99394;-83
2022/07/29 00:23:19;;;;;;;10.97;3.03;;;;;;;16.47;58.35;100944.78;3467892;84;98921;-91
2022/07/29 00:28:32;;;;;;;11.40;3.13;;;;;;;16.41;58.11;100950.57;3466504;84;99198;-83
2022/07/29 00:33:33;;;;;;;8.35;3.00;;;;;;;16.40;58.60;100958.10;3438695;84;99136;-81
2022/07/29 00:38:34;;;;;;;18.03;3.43;;;;;;;16.36;58.89;100953.73;3439646;83;98783;-85
2022/07/29 00:43:37;;;;;;;8.40;3.03;;;;;;;16.33;59.33;100948.38;3435745;84;98948;-83
2022/07/29 00:48:38;;;;;;;10.40;3.02;;;;;;;16.28;60.08;100954.35;3439197;84;99115;-82
2022/07/29 00:53:41;;;;;;;10.07;3.47;;;;;;;16.21;60.63;100952.20;3445746;83;99482;-83
2022/07/29 00:58:42;;;;;;;10.25;3.60;;;;;;;16.15;61.48;100949.05;3432494;85;99601;-82
2022/07/29 01:03:43;;;;;;;9.00;2.93;;;;;;;16.07;62.43;100951.64;3433031;84;99194;-83
2022/07/29 01:08:49;;;;;;;10.37;3.53;;;;;;;16.03;63.89;100954.24;3442003;85;98620;-82
2022/07/29 01:13:51;;;;;;;11.03;3.65;;;;;;;15.97;63.88;100952.45;3442026;85;98814;-82
2022/07/29 01:18:56;;;;;;;8.65;3.08;;;;;;;15.92;64.75;100957.03;3449836;84;99223;-82
2022/07/29 01:24:40;;;;;;;11.60;3.27;;;;;;;15.88;64.36;100954.88;3436954;83;98873;-82
2022/07/29 01:29:49;;;;;;;10.85;3.30;;;;;;;15.85;65.96;100948.72;3437876;85;99099;-83
2022/07/29 01:35:23;;;;;;;7.05;2.90;;;;;;;15.72;66.57;100942.02;3454506;84;99036;-83
2022/07/29 01:40:37;;;;;;;10.43;3.27;;;;;;;15.67;66.72;100945.20;3454561;83;99422;-83
2022/07/29 01:46:00;;;;;;;9.23;2.60;;;;;;;15.65;66.83;100953.11;3392179;85;99132;-82
2022/07/29 01:51:23;;;;;;;10.10;3.10;;;;;;;15.63;67.56;100931.91;3457061;84;99212;-82
2022/07/29 01:56:35;;;;;;;11.53;3.85;;;;;;;15.59;68.49;100928.95;3464679;85;32976;-82
2022/07/29 02:01:40;;;;;;;8.77;3.10;;;;;;;15.53;68.92;100929.17;3415862;85;98735;-84
2022/07/29 02:06:51;;;;;;;9.55;3.27;;;;;;;15.53;70.24;100925.78;3452537;83;99097;-84
2022/07/29 02:11:55;;;;;;;9.93;3.60;;;;;;;15.54;69.15;100924.58;3450853;85;98838;-83
2022/07/29 02:16:58;;;;;;;8.50;3.55;;;;;;;15.52;69.96;100938.07;3462919;84;98815;-81
2022/07/29 02:22:02;;;;;;;5.87;2.92;;;;;;;15.45;70.84;100925.60;3447109;82;98907;-83
2022/07/29 02:27:04;;;;;;;9.00;3.30;;;;;;;15.44;70.94;100917.09;3444825;84;98966;-82
2022/07/29 02:32:09;;;;;;;9.70;3.35;;;;;;;15.41;71.37;100921.23;3469491;85;32880;-83
2022/07/29 02:37:12;;;;;;;11.43;3.80;;;;;;;15.43;71.87;100918.25;3472863;83;98896;-82
2022/07/29 02:42:17;;;;;;;9.95;4.17;;;;;;;15.36;72.80;100909.17;3522003;83;99611;-83
2022/07/29 02:47:35;;;;;;;7.47;3.15;;;;;;;15.29;73.45;100912.70;3466023;83;99038;-83
2022/07/29 02:53:00;;;;;;;7.60;3.25;;;;;;;15.26;72.85;100909.94;3499728;83;99467;-84
2022/07/29 02:58:28;;;;;;;12.15;3.75;;;;;;;15.21;73.53;100907.55;3461012;83;98806;-85
2022/07/29 03:03:32;;;;;;;10.73;2.90;;;;;;;15.13;74.71;100903.98;3455446;84;99052;-81
2022/07/29 03:08:50;;;;;;;;;;;;;;;15.06;74.41;100899.83;3501509;83;98920;-86
2022/07/29 03:13:52;;;;;;;5.12;2.72;;;;;;;15.07;75.77;100893.09;3484584;83;85038;-82
2022/07/29 03:18:54;;;;;;;9.47;3.10;;;;;;;15.07;74.46;100895.87;3511166;83;98607;-82
2022/07/29 03:23:57;;;;;;;7.10;3.20;;;;;;;15.07;74.30;100891.71;3505714;83;98825;-84
2022/07/29 03:28:58;;;;;;;9.10;3.55;;;;;;;15.05;75.50;100897.45;3509925;83;99227;-83
2022/07/29 03:33:59;;;;;;;10.00;3.27;;;;;;;14.97;75.59;100900.81;3509378;83;98903;-80
2022/07/29 03:39:02;;;;;;;8.43;2.90;;;;;;;14.96;75.51;100899.23;3503810;82;99115;-82
2022/07/29 03:44:06;;;;;;;9.75;3.05;;;;;;;14.91;75.97;100896.84;3512698;83;98535;-82
2022/07/29 03:49:20;;;;;;;6.05;2.98;;;;;;;14.92;76.03;100905.36;3508833;83;99144;-82
2022/07/29 03:54:30;;;;;;;8.55;2.83;;;;;;;14.92;76.44;100890.11;3499105;83;98852;-85
2022/07/29 03:59:33;;;;;;;8.88;3.02;;;;;;;14.86;76.09;100884.77;3496774;83;98958;-81
2022/07/29 04:04:35;;;;;;;9.70;2.92;;;;;;;14.94;76.28;100896.66;3493497;83;98874;-83
2022/07/29 04:09:37;;;;;;;10.40;2.80;;;;;;;14.97;76.79;100908.32;3434020;84;98854;-83
2022/07/29 04:14:38;;;;;;;5.87;2.43;;;;;;;14.97;77.04;100904.97;3509257;83;25865;-80
2022/07/29 04:19:39;;;;;;;10.15;3.08;;;;;;;15.02;76.96;100907.34;3506252;83;98692;-81
2022/07/29 04:24:42;;;;;;;5.70;2.53;;;;;;;15.09;76.86;100912.11;3509689;83;98968;-81
2022/07/29 04:29:44;;;;;;;6.47;2.30;;;;;;;15.14;76.95;100921.39;3505135;83;99169;-82
2022/07/29 04:34:52;;;;;;;7.30;2.40;;;;;;;15.20;76.50;100928.16;3494614;82;99117;-82
2022/07/29 04:39:53;;;;;;;7.37;2.40;;;;;;;15.26;77.32;100934.28;3454632;83;99235;-81
2022/07/29 04:44:58;;;;;;;9.20;2.80;;;;;;;15.33;76.40;100938.49;3434935;85;27238;-83
2022/07/29 04:49:59;;;;;;;6.35;2.42;;;;;;;15.41;76.76;100933.13;3435485;84;98668;-82
2022/07/29 04:55:01;;;;;;;9.33;3.00;;;;;;;15.51;76.60;100932.33;3435316;82;99137;-82
2022/07/29 05:00:05;;;;;;;4.78;2.40;;;;;;;15.60;76.42;100925.77;3462800;84;98855;-81
2022/07/29 05:05:07;;;;;;;7.58;2.50;;;;;;;15.71;76.62;100928.53;3473281;83;99224;-82
2022/07/29 05:10:09;;;;;;;6.97;2.50;;;;;;;15.82;76.48;100929.30;3415203;83;99718;-82
2022/07/29 05:15:12;;;;;;;5.83;2.42;;;;;;;15.95;76.31;100927.67;3420030;85;33614;-81
2022/07/29 05:20:13;;;;;;;9.15;2.45;;;;;;;16.09;76.07;100920.09;3430303;85;98490;-82
2022/07/29 05:25:17;;;;;;;6.03;2.33;;;;;;;16.24;75.81;100915.30;3404060;85;98689;-83
2022/07/29 05:30:19;;;;;;;6.25;2.02;;;;;;;16.41;75.49;100913.84;3406037;85;98855;-80
2022/07/29 05:35:27;;;;;;;6.90;2.42;;;;;;;16.68;75.22;100917.66;3462192;82;32989;-81
2022/07/29 05:40:28;;;;;;;6.95;2.60;;;;;;;17.08;74.64;100917.01;3494540;83;98847;-82
2022/07/29 05:45:44;;;;;;;10.20;2.63;;;;;;;17.73;74.23;100926.59;3519208;83;28197;-82
2022/07/29 05:50:45;;;;;;;7.35;2.62;;;;;;;18.40;72.68;100929.42;3512349;83;99161;-79
2022/07/29 05:55:48;;;;;;;9.80;2.40;;;;;;;19.20;71.75;100926.08;3526751;83;98612;-80
2022/07/29 06:01:07;;;;;;;15.40;3.22;;;;;;;20.06;70.26;100922.13;3506931;82;98754;-82
2022/07/29 06:06:10;;;;;;;16.10;4.42;;;;;;;20.87;67.33;100921.20;3517447;83;99060;-82
2022/07/29 06:11:11;;;;;;;5.25;2.17;;;;;;;21.44;65.59;100928.46;3511966;83;99092;-81
2022/07/29 06:16:22;;;;;;;7.87;2.10;;;;;;;22.20;63.54;100921.22;3504169;83;98930;-79
2022/07/29 06:21:25;;;;;;;6.60;2.30;;;;;;;22.74;61.63;100923.44;3472703;83;98851;-81
2022/07/29 06:26:26;;;;;;;5.40;1.87;;;;;;;23.09;59.93;100918.09;3488743;83;99234;-81
2022/07/29 06:31:27;;;;;;;7.37;2.47;;;;;;;23.39;58.85;100916.94;3482264;83;98709;-82
2022/07/29 06:36:29;;;;;;;7.50;2.22;;;;;;;24.02;57.98;100917.53;3499785;83;99380;-80
2022/07/29 06:41:32;;;;;;;8.15;1.95;;;;;;;24.41;56.33;100909.84;3504587;83;98875;-82
2022/07/29 06:46:37;;;;;;;6.20;1.80;;;;;;;24.58;54.51;100921.70;3530310;83;33619;-81
2022/07/29 06:51:38;;;;;;;6.17;1.90;;;;;;;24.75;53.24;100923.81;3447718;84;98741;-81
2022/07/29 06:56:41;;;;;;;4.87;1.80;;;;;;;24.99;52.56;100915.64;3481080;84;99092;-81
2022/07/29 07:01:49;;;;;;;7.50;1.70;;;;;;;25.13;51.18;100917.89;3519332;83;98834;-82
2022/07/29 07:06:51;;;;;;;7.78;2.15;;;;;;;25.16;50.50;100912.72;3512678;83;98864;-84
2022/07/29 07:11:52;;;;;;;8.05;1.80;;;;;;;25.23;49.50;100922.31;3535579;83;26039;-80
2022/07/29 07:16:53;;;;;;;5.30;2.00;;;;;;;25.54;48.85;100905.50;3474491;83;98938;-80
2022/07/29 07:21:59;;;;;;;7.35;1.75;;;;;;;25.56;48.23;100899.40;3469446;84;32928;-80
2022/07/29 07:27:00;;;;;;;5.92;1.50;;;;;;;25.44;47.96;100895.45;3456952;84;99121;-81
2022/07/29 07:32:04;;;;;;;6.62;1.60;;;;;;;25.52;47.65;100891.71;3496175;84;98618;-81
2022/07/29 07:37:05;;;;;;;5.87;1.50;;;;;;;25.58;46.93;100892.05;3475968;83;98834;-80
2022/07/29 07:42:06;;;;;;;7.47;1.95;;;;;;;25.49;46.55;100899.06;3471823;84;98827;-81
2022/07/29 07:47:08;;;;;;;9.03;1.80;;;;;;;25.49;46.52;100902.50;3468937;84;99074;-81
2022/07/29 07:52:23;;;;;;;10.10;2.22;;;;;;;25.52;45.99;100905.80;3470331;83;99378;-80
2022/07/29 07:57:24;;;;;;;;;;;;;;;25.10;45.44;100901.91;3508150;83;99212;-82
2022/07/29 08:02:26;;;;;;;8.58;1.92;;;;;;;25.04;45.30;100903.16;3505950;83;85168;-79
2022/07/29 08:07:29;;;;;;;4.62;1.40;;;;;;;24.97;45.88;100910.48;3494063;83;98907;-80
2022/07/29 08:12:37;;;;;;;7.03;1.70;;;;;;;25.01;45.66;100911.75;3513855;83;98008;-80
2022/07/29 08:17:42;;;;;;;4.80;1.32;;;;;;;25.14;45.39;100913.82;3465168;83;98919;-82
2022/07/29 08:22:54;;;;;;;4.30;1.07;;;;;;;25.02;44.90;100921.13;3510076;83;99259;-81
2022/07/29 08:28:06;;;;;;;5.50;1.67;;;;;;;25.03;44.88;100920.52;3515086;83;98864;-85
2022/07/29 08:33:07;;;;;;;4.35;1.50;;;;;;;25.04;44.66;100924.28;3484693;83;26370;-80
2022/07/29 08:38:15;;;;;;;3.75;1.37;;;;;;;24.89;44.47;100927.49;3459036;84;98582;-80
2022/07/29 08:43:16;;;;;;;5.17;1.47;;;;;;;24.93;44.60;100932.98;3505201;83;98672;-81
2022/07/29 08:48:24;;;;;;;5.35;1.62;;;;;;;24.99;44.50;100922.67;3520045;83;98918;-80
2022/07/29 08:53:27;;;;;;;6.72;1.92;;;;;;;25.01;44.57;100928.01;3516060;83;98863;-81
2022/07/29 08:58:32;;;;;;;7.55;2.00;;;;;;;24.97;44.60;100925.19;3451511;85;99238;-81
2022/07/29 09:03:36;;;;;;;6.47;1.62;;;;;;;25.00;44.42;100919.41;3516081;83;25856;-80
2022/07/29 09:08:38;;;;;;;12.83;2.40;;;;;;;25.06;44.14;100918.95;3498003;83;98587;-79
2022/07/29 09:13:39;;;;;;;7.17;1.60;;;;;;;25.12;44.34;100929.00;3475394;84;98823;-79
2022/07/29 09:18:44;;;;;;;4.50;1.60;;;;;;;25.18;44.08;100933.55;3474796;83;99078;-83
2022/07/29 09:24:11;;;;;;;5.22;1.45;;;;;;;25.16;44.07;100929.02;3468953;84;98986;-79
2022/07/29 09:29:16;;;;;;;4.50;1.52;;;;;;;25.22;44.16;100919.34;3463012;84;98837;-79
2022/07/29 09:34:25;;;;;;;6.67;1.72;;;;;;;25.35;43.61;100924.25;3513244;83;98657;-79
2022/07/29 09:39:37;;;;;;;7.17;2.20;;;;;;;25.51;43.16;100923.33;3471328;83;98634;-81
2022/07/29 09:44:47;;;;;;;6.53;1.47;;;;;;;25.44;43.19;100920.05;3462386;84;98668;-79
2022/07/29 09:50:01;;;;;;;6.75;1.47;;;;;;;25.55;42.62;100921.16;3454412;83;99195;-82
2022/07/29 09:55:09;;;;;;;6.33;1.72;;;;;;;25.67;42.33;100918.81;3473078;84;98750;-79
2022/07/29 10:00:17;;;;;;;5.08;1.60;;;;;;;25.55;41.88;100911.29;3403406;85;99309;-78
2022/07/29 10:05:25;;;;;;;4.47;1.42;;;;;;;25.68;41.76;100909.74;3417718;85;98814;-79
2022/07/29 10:10:36;;;;;;;5.55;1.60;;;;;;;25.78;41.85;100907.09;3450418;85;98858;-81
2022/07/29 10:15:40;;;;;;;6.53;1.57;;;;;;;25.98;41.48;100903.19;3456770;85;26656;-78
2022/07/29 10:20:41;;;;;;;6.35;1.62;;;;;;;26.07;40.94;100903.98;3402671;84;98995;-78
2022/07/29 10:25:42;;;;;;;5.25;1.85;;;;;;;26.29;40.87;100903.80;3441822;84;97816;-79
2022/07/29 10:30:45;;;;;;;6.55;1.67;;;;;;;26.70;40.34;100898.88;3441177;84;99430;-78
2022/07/29 10:36:14;;;;;;;5.25;1.70;;;;;;;27.04;40.31;100886.48;3455830;84;99163;-81
2022/07/29 10:41:57;;;;;;;4.87;1.50;;;;;;;27.69;39.95;100879.97;3381252;86;99338;-79
2022/07/29 10:47:05;;;;;;;7.22;1.60;;;;;;;28.58;38.57;100864.83;3489049;83;99574;-83
2022/07/29 10:52:09;;;;;;;4.05;1.67;;;;;;;29.20;37.53;100874.59;3473452;84;98803;-78
2022/07/29 10:57:19;;;;;;;7.85;1.80;;;;;;;29.44;37.37;100863.05;3459140;84;99172;-80
2022/07/29 11:02:44;;;;;;;4.20;1.37;;;;;;;29.60;36.55;100865.35;3471180;84;98725;-78
2022/07/29 11:08:19;;;;;;;3.25;1.30;;;;;;;29.71;36.44;100863.44;3498877;83;98973;-80
2022/07/29 11:14:02;;;;;;;5.60;1.70;;;;;;;29.94;36.08;100866.67;3466773;84;98666;-79
2022/07/29 11:19:18;;;;;;;5.93;1.47;;;;;;;30.03;35.57;100864.31;3433842;84;99367;-83
2022/07/29 11:24:27;;;;;;;5.58;1.72;;;;;;;30.01;35.47;100863.38;3484026;84;98987;-80
2022/07/29 11:29:27;;;;;;;4.50;2.00;;;;;;;29.89;35.39;100855.23;3459363;84;98662;-81
2022/07/29 11:34:32;;;;;;;6.80;1.92;;;;;;;30.53;34.95;100857.06;3525871;83;98911;-79
2022/07/29 11:39:34;;;;;;;;;;;;;;;30.89;35.06;100847.16;3464094;84;99128;-82
2022/07/29 11:45:13;;;;;;;7.87;1.65;;;;;;;30.77;35.40;100855.48;3463482;84;85134;-79
2022/07/29 11:50:19;;;;;;;5.62;1.80;;;;;;;31.14;34.27;100840.61;3468935;83;98813;-79
2022/07/29 11:55:24;;;;;;;7.80;1.52;;;;;;;30.99;33.58;100841.42;3462374;84;98670;-79
2022/07/29 12:00:45;;;;;;;;;;;;;;;30.61;33.54;100830.53;3443883;84;98896;-79
2022/07/29 12:05:45;;;;;;;6.58;2.10;;;;;;;30.84;33.13;100838.61;3463519;84;85212;-80
2022/07/29 12:10:52;;;;;;;10.08;2.00;;;;;;;30.36;33.49;100836.27;3454641;84;98919;-78
2022/07/29 12:16:00;;;;;;;7.08;1.90;;;;;;;30.41;33.09;100834.11;3474457;83;26843;-79
2022/07/29 12:21:07;;;;;;;7.22;2.02;;;;;;;30.15;33.27;100807.17;3451748;85;99012;-79
2022/07/29 12:26:08;;;;;;;3.58;1.60;;;;;;;30.32;33.36;100824.34;3469812;85;98658;-78
2022/07/29 12:31:15;;;;;;;4.15;1.70;;;;;;;30.65;32.87;100814.66;3446269;84;98905;-78
2022/07/29 12:36:16;;;;;;;6.20;1.82;;;;;;;31.17;33.08;100801.18;3469000;83;98854;-82
2022/07/29 12:41:19;;;;;;;4.45;1.77;;;;;;;31.31;32.09;100805.16;3490623;83;98748;-79
2022/07/29 12:46:20;;;;;;;3.98;1.80;;;;;;;31.34;30.99;100794.19;3521933;83;98772;-80
2022/07/29 12:51:38;;;;;;;4.75;1.42;;;;;;;31.19;30.76;100790.72;3510308;83;98354;-79
2022/07/29 12:56:43;;;;;;;5.58;1.52;;;;;;;31.64;30.80;100781.88;3503166;83;99202;-81
2022/07/29 13:01:51;;;;;;;4.65;1.65;;;;;;;31.69;30.42;100788.86;3516331;83;98683;-79
2022/07/29 13:07:01;;;;;;;12.20;2.37;;;;;;;32.01;30.66;100780.28;3480288;84;99085;-80
2022/07/29 13:12:09;;;;;;;4.47;1.70;;;;;;;32.19;29.96;100776.91;3493831;84;98992;-81
2022/07/29 13:17:22;;;;;;;6.72;1.92;;;;;;;32.59;29.86;100772.16;3479153;83;99355;-81
2022/07/29 13:22:24;;;;;;;4.60;1.45;;;;;;;32.48;29.83;100770.08;3526570;83;99189;-82
2022/07/29 13:27:28;;;;;;;6.05;1.70;;;;;;;32.28;30.33;100763.25;3521473;83;99042;-80
2022/07/29 13:32:41;;;;;;;7.50;2.27;;;;;;;31.80;30.05;100769.78;3534996;83;98794;-81
2022/07/29 13:37:46;;;;;;;5.62;2.10;;;;;;;32.03;30.26;100757.11;3483273;82;98656;-78
2022/07/29 13:42:50;;;;;;;6.05;2.00;;;;;;;32.06;29.99;100746.13;3487974;83;98835;-79
2022/07/29 13:47:53;;;;;;;5.12;1.77;;;;;;;32.18;28.60;100756.22;3461543;83;98806;-84
2022/07/29 13:53:00;;;;;;;5.22;1.40;;;;;;;31.78;29.16;100747.39;3400589;86;99545;-78
2022/07/29 13:58:03;;;;;;;6.45;2.60;;;;;;;31.52;29.22;100732.55;3451740;84;98982;-81
2022/07/29 14:03:08;;;;;;;5.08;1.70;;;;;;;31.43;29.05;100734.23;3458845;84;26102;-79
2022/07/29 14:08:13;;;;;;;3.70;1.90;;;;;;;31.49;29.55;100722.98;3473688;83;98952;-80
2022/07/29 14:13:17;;;;;;;6.75;1.72;;;;;;;31.57;29.31;100720.41;3459608;84;99290;-80
2022/07/29 14:18:22;;;;;;;9.88;1.70;;;;;;;31.22;29.12;100716.56;3457209;84;99209;-82
2022/07/29 14:23:28;;;;;;;7.80;1.95;;;;;;;30.93;29.19;100717.58;3458632;85;98934;-80
2022/07/29 14:28:32;;;;;;;4.28;1.82;;;;;;;30.63;29.17;100714.29;3455067;84;98815;-80
2022/07/29 14:33:33;;;;;;;5.60;2.00;;;;;;;30.87;30.22;100701.93;3474961;85;25938;-79
2022/07/29 14:38:37;;;;;;;5.67;1.70;;;;;;;31.06;29.29;100698.77;3451212;84;98603;-83
2022/07/29 14:43:37;;;;;;;6.95;1.77;;;;;;;30.74;29.96;100701.59;3461817;83;98675;-80
2022/07/29 14:48:38;;;;;;;3.40;1.52;;;;;;;30.54;30.16;100714.52;3500527;83;98880;-80
2022/07/29 14:53:40;;;;;;;3.42;1.30;;;;;;;30.63;29.77;100711.45;3503605;83;98822;-78
2022/07/29 14:58:41;;;;;;;6.20;1.65;;;;;;;30.29;30.45;100709.69;3508644;83;99216;-79
2022/07/29 15:03:42;;;;;;;5.78;1.72;;;;;;;30.32;30.48;100712.16;3510979;83;34084;-80
2022/07/29 15:08:43;;;;;;;5.00;1.92;;;;;;;29.84;29.78;100696.40;3505724;83;99106;-79
2022/07/29 15:13:45;;;;;;;5.20;1.80;;;;;;;29.61;30.14;100706.62;3514001;83;98745;-80
2022/07/29 15:18:46;;;;;;;3.27;1.80;;;;;;;29.40;30.28;100700.83;3509175;83;98684;-79
2022/07/29 15:23:47;;;;;;;5.58;1.75;;;;;;;29.06;30.80;100694.02;3514565;83;98816;-79
2022/07/29 15:28:48;;;;;;;6.20;1.62;;;;;;;28.78;30.56;100692.08;3498673;82;98987;-81
2022/07/29 15:33:50;;;;;;;2.80;1.45;;;;;;;28.58;30.74;100686.39;3511394;83;33556;-80
2022/07/29 15:39:06;;;;;;;5.92;1.60;;;;;;;28.39;31.27;100687.28;3515943;83;98650;-95
2022/07/29 15:44:07;;;;;;;4.58;1.50;;;;;;;28.40;32.35;100686.00;3524462;83;99118;-79
2022/07/29 15:49:10;;;;;;;6.75;1.50;;;;;;;28.27;31.64;100678.45;3502332;83;98944;-84
2022/07/29 15:54:12;;;;;;;7.00;2.10;;;;;;;28.10;31.53;100682.29;3516239;83;25855;-80
2022/07/29 15:59:12;;;;;;;4.55;1.60;;;;;;;27.91;31.56;100677.52;3496429;83;98942;-82
2022/07/29 16:04:14;;;;;;;4.17;1.60;;;;;;;27.74;32.08;100675.64;3527610;82;33529;-82
2022/07/29 16:09:16;;;;;;;4.08;1.45;;;;;;;27.57;31.82;100671.09;3526501;83;98573;-80
2022/07/29 16:14:17;;;;;;;4.35;1.52;;;;;;;27.46;31.97;100674.37;3524303;83;98636;-79
2022/07/29 16:19:18;;;;;;;6.72;1.92;;;;;;;27.46;32.17;100672.96;3521041;83;99073;-79
2022/07/29 16:24:19;;;;;;;6.30;2.15;;;;;;;27.43;32.25;100678.16;3521611;83;98799;-80
2022/07/29 16:29:20;;;;;;;2.37;1.70;;;;;;;27.36;32.20;100675.72;3510067;83;98887;-80
2022/07/29 16:34:21;;;;;;;5.60;1.85;;;;;;;27.19;32.76;100666.16;3520478;83;98782;-80
2022/07/29 16:39:22;;;;;;;5.08;1.50;;;;;;;26.96;32.93;100646.53;3484841;83;99106;-79
2022/07/29 16:44:23;;;;;;;5.17;1.65;;;;;;;26.85;33.13;100660.44;3484076;83;98650;-79
2022/07/29 16:49:24;;;;;;;4.25;1.80;;;;;;;26.66;33.35;100649.76;3462516;83;98770;-80
2022/07/29 16:54:25;;;;;;;5.80;1.75;;;;;;;26.57;33.56;100656.87;3466052;83;98792;-81
2022/07/29 16:59:28;;;;;;;4.95;1.80;;;;;;;26.47;34.18;100653.30;3469751;83;98943;-79
2022/07/29 17:04:31;;;;;;;6.37;1.85;;;;;;;26.35;34.29;100654.32;3468617;84;99473;-79
2022/07/29 17:09:34;;;;;;;3.67;1.47;;;;;;;26.25;34.62;100653.42;3415052;85;98544;-80
2022/07/29 17:14:38;;;;;;;5.83;1.75;;;;;;;26.15;34.99;100651.94;3418029;85;97738;-81
2022/07/29 17:19:39;;;;;;;4.22;1.60;;;;;;;26.08;34.94;100653.67;3457828;83;98935;-80
2022/07/29 17:24:40;;;;;;;6.00;1.70;;;;;;;25.99;35.18;100650.91;3465557;85;98916;-79
2022/07/29 17:29:42;;;;;;;6.62;1.75;;;;;;;25.81;35.41;100653.75;3454685;84;98947;-79
2022/07/29 17:34:45;;;;;;;6.53;1.80;;;;;;;25.63;35.68;100655.23;3461060;85;98883;-81
2022/07/29 17:39:47;;;;;;;5.70;1.70;;;;;;;25.46;35.95;100648.38;3461215;84;98585;-78
2022/07/29 17:44:48;;;;;;;4.78;1.70;;;;;;;25.33;36.30;100661.88;3460913;82;98767;-79
2022/07/29 17:55:15;;;;;;;5.20;1.72;;;;;;;25.14;37.08;100656.86;3625871;77;32376;-79
2022/07/29 18:00:16;;;;;;;4.22;1.75;;;;;;;24.98;37.10;100657.80;3453389;83;98421;-80
2022/07/29 18:05:17;;;;;;;5.55;1.60;;;;;;;24.90;37.21;100665.00;3432754;84;98871;-80
2022/07/29 18:10:24;;;;;;;4.28;1.72;;;;;;;24.75;37.71;100669.03;3484715;82;98729;-83
2022/07/29 18:15:25;;;;;;;4.65;1.75;;;;;;;24.65;37.80;100666.08;3480019;82;98312;-79
2022/07/29 18:20:26;;;;;;;5.53;1.87;;;;;;;24.54;38.03;100660.70;3563951;80;98805;-79
2022/07/29 18:25:28;;;;;;;5.97;1.98;;;;;;;24.47;38.25;100669.45;3531883;82;98768;-81
2022/07/29 18:30:32;;;;;;;5.35;1.90;;;;;;;24.29;38.61;100675.80;3561888;81;98775;-81
2022/07/29 18:35:33;;;;;;;10.48;2.40;;;;;;;24.18;38.75;100677.47;3634917;79;99220;-82
2022/07/29 18:40:34;;;;;;;9.03;4.37;;;;;;;24.09;39.11;100674.65;3630994;79;98950;-80
2022/07/29 18:45:35;;;;;;;8.93;4.70;;;;;;;23.95;39.51;100678.01;3642320;79;31631;-79
2022/07/29 18:50:36;;;;;;;10.78;4.70;;;;;;;23.83;39.74;100684.48;3624779;79;99223;-81
2022/07/29 18:55:37;;;;;;;11.40;4.62;;;;;;;23.65;39.99;100675.97;3647161;79;99031;-81
2022/07/29 19:00:38;;;;;;;7.33;3.50;;;;;;;23.56;40.33;100684.34;3639474;80;99082;-81
2022/07/29 19:05:39;;;;;;;7.42;2.52;;;;;;;23.38;40.62;100689.20;3597181;80;98868;-80
2022/07/29 19:10:41;;;;;;;9.00;2.35;;;;;;;23.25;40.86;100694.11;3577137;80;98889;-82
2022/07/29 19:15:43;;;;;;;6.33;2.20;;;;;;;23.09;41.31;100697.68;3584512;81;31798;-81
2022/07/29 19:20:44;;;;;;;6.22;2.40;;;;;;;22.95;41.62;100687.73;3568925;81;98669;-80
2022/07/29 19:25:48;;;;;;;4.62;2.27;;;;;;;22.85;41.97;100699.35;3575652;81;97997;-82
2022/07/29 19:30:50;;;;;;;6.20;2.40;;;;;;;22.72;42.42;100706.39;3632756;78;98788;-82
2022/07/29 19:36:00;;;;;;;5.72;2.05;;;;;;;22.58;42.80;100699.08;3593017;80;98816;-80
2022/07/29 19:41:01;;;;;;;6.92;2.20;;;;;;;22.41;43.32;100699.82;3623778;79;98803;-81
2022/07/29 19:46:02;;;;;;;6.20;2.47;;;;;;;22.30;43.61;100709.20;3632988;80;31669;-81
2022/07/29 19:51:04;;;;;;;9.90;3.15;;;;;;;22.18;44.07;100697.34;3628324;80;98736;-81
2022/07/29 19:56:07;;;;;;;4.42;1.85;;;;;;;22.06;44.11;100696.73;3625042;79;98582;-82
2022/07/29 20:01:09;;;;;;;7.20;2.10;;;;;;;21.97;44.46;100693.05;3626261;80;98809;-81
2022/07/29 20:06:10;;;;;;;5.60;2.30;;;;;;;21.85;44.92;100698.80;3633543;80;98908;-82
2022/07/29 20:11:11;;;;;;;17.20;3.50;;;;;;;21.74;45.08;100698.34;3628741;80;98869;-82
2022/07/29 20:16:12;;;;;;;5.92;1.87;;;;;;;21.61;45.46;100704.52;3635530;80;32382;-81
2022/07/29 20:21:13;;;;;;;4.83;2.02;;;;;;;21.51;45.73;100702.80;3628458;80;98669;-81
2022/07/29 20:26:14;;;;;;;5.60;2.02;;;;;;;21.41;46.15;100701.09;3626421;80;98600;-81
2022/07/29 20:31:15;;;;;;;10.82;2.33;;;;;;;21.30;46.46;100699.84;3618812;80;98865;-82
2022/07/29 20:36:16;;;;;;;4.15;2.17;;;;;;;21.18;46.91;100698.56;3629719;80;99088;-82
2022/07/29 20:41:21;;;;;;;7.45;2.77;;;;;;;21.08;46.86;100694.66;3625132;80;98840;-88
2022/07/29 20:46:22;;;;;;;5.67;2.30;;;;;;;21.02;47.12;100694.41;3633712;80;25836;-81
2022/07/29 20:51:23;;;;;;;6.37;2.25;;;;;;;20.91;47.57;100693.11;3625448;80;98499;-81
2022/07/29 20:56:24;;;;;;;6.25;1.95;;;;;;;20.85;47.86;100694.84;3631462;80;97801;-81
2022/07/29 21:01:25;;;;;;;9.65;1.92;;;;;;;20.78;47.87;100700.03;3628456;79;98765;-81
2022/07/29 21:06:26;;;;;;;6.47;2.52;;;;;;;20.70;48.24;100695.83;3634752;80;99206;-82
2022/07/29 21:11:27;;;;;;;6.70;2.08;;;;;;;20.64;48.40;100698.98;3627154;80;99066;-81
2022/07/29 21:16:29;;;;;;;5.20;1.95;;;;;;;20.61;48.84;100710.27;3626167;80;31652;-81
2022/07/29 21:21:30;;;;;;;5.85;2.22;;;;;;;20.45;49.12;100708.27;3627725;80;98609;-79
2022/07/29 21:26:32;;;;;;;7.37;2.47;;;;;;;20.37;49.54;100713.84;3635115;78;98662;-81
2022/07/29 21:31:33;;;;;;;8.15;2.52;;;;;;;20.31;49.91;100718.98;3627539;80;98794;-81
2022/07/29 21:36:34;;;;;;;11.20;2.37;;;;;;;20.21;50.19;100718.02;3628898;80;98524;-80
2022/07/29 21:41:35;;;;;;;8.13;2.30;;;;;;;20.14;50.55;100723.78;3627822;80;99508;-82
2022/07/29 21:46:36;;;;;;;8.48;2.52;;;;;;;20.09;50.82;100720.11;3624077;80;98863;-81
2022/07/29 21:51:57;;;;;;;6.97;1.98;;;;;;;19.96;51.06;100719.79;3646331;79;29921;-81
2022/07/29 21:56:58;;;;;;;4.00;1.82;;;;;;;19.81;51.18;100722.12;3629455;79;98646;-80
2022/07/29 22:01:59;;;;;;;8.25;2.20;;;;;;;19.65;51.78;100722.06;3638427;79;98675;-80
2022/07/29 22:07:03;;;;;;;5.00;2.02;;;;;;;19.49;52.42;100717.02;3643201;79;98745;-80
2022/07/29 22:12:10;;;;;;;7.62;2.37;;;;;;;19.32;53.01;100713.38;3616511;79;98853;-81
2022/07/29 22:17:18;;;;;;;8.85;1.80;;;;;;;19.17;53.62;100717.63;3640859;79;98927;-88
2022/07/29 22:22:20;;;;;;;6.92;1.80;;;;;;;19.07;53.97;100720.00;3639064;79;26042;-80
2022/07/29 22:27:21;;;;;;;4.42;1.45;;;;;;;19.01;54.53;100722.34;3640338;79;98684;-80
2022/07/29 22:32:22;;;;;;;5.08;1.30;;;;;;;18.95;54.45;100717.05;3648046;79;98737;-79
2022/07/29 22:37:23;;;;;;;7.05;1.47;;;;;;;18.90;54.65;100721.13;3636027;79;98832;-78
2022/07/29 22:42:26;;;;;;;4.97;1.22;;;;;;;18.80;54.83;100708.78;3648716;80;98774;-80
2022/07/29 22:47:27;;;;;;;5.08;1.42;;;;;;;18.81;55.42;100715.30;3641621;79;99222;-79
2022/07/29 22:52:29;;;;;;;6.10;1.50;;;;;;;18.72;55.26;100713.69;3649858;79;30071;-85
2022/07/29 22:57:30;;;;;;;5.50;1.72;;;;;;;18.71;55.54;100711.31;3600847;79;98855;-79
2022/07/29 23:02:31;;;;;;;5.15;1.40;;;;;;;18.63;55.75;100703.67;3640447;79;98608;-79
2022/07/29 23:07:35;;;;;;;6.62;1.60;;;;;;;18.56;55.77;100701.61;3639283;79;98857;-83
2022/07/29 23:12:36;;;;;;;4.53;1.45;;;;;;;18.53;56.35;100695.51;3648457;79;98898;-80
2022/07/29 23:17:37;;;;;;;6.92;1.27;;;;;;;18.44;56.61;100698.05;3637722;78;98598;-80
2022/07/29 23:22:38;;;;;;;2.90;1.20;;;;;;;18.40;56.75;100684.77;3642841;79;99323;-79
2022/07/29 23:27:40;;;;;;;5.58;1.47;;;;;;;18.38;56.73;100670.48;3640125;80;98531;-80
2022/07/29 23:32:41;;;;;;;3.92;1.27;;;;;;;18.34;56.91;100664.97;3644911;79;98707;-79
2022/07/29 23:37:42;;;;;;;3.85;1.17;;;;;;;18.27;56.98;100658.09;3639590;79;98557;-79
2022/07/29 23:42:43;;;;;;;3.10;0.90;;;;;;;18.22;57.20;100662.75;3648802;79;98869;-81